McDonough, GA

1:58 AM EDT on July 04, 2015 (GMT -0400)
Lakehaven | | Change Station
CLOSE
Current Station
Personal Weather Station
Location: McDonough, GA
Elevation: 833 ft
Nearby Weather Stations

Elev 833 ft 33.49 °N, 84.15 °W | Updated 29 seconds ago

Rain
Rain
66.9 °F
Feels Like 66.9 °F
N
0.0
Wind Variable Wind from WNW
Gusts 2.0 mph

Today
High -- | Low -- °F
--% Chance of Precip.
Yesterday
High -- | Low -- °F
Precip. -- in
6:31 AM 8:49 PM
Waning Gibbous, 94% visible
Pressure 30.02 in
Visibility 10.0 miles
Clouds
Dew Point Not available.
Humidity Not available.
Rainfall 0.04 in
Snow Depth Not available.
UV Not available.
Pollen 1.60 out of 12
Air Quality Not available.
Flu Activity Not available.
METAR KCVC 040535Z AUTO 28005KT 10SM -RA 23/18 A3002 RMK AO2 LTG DSNT NE THRU SE

More Conditions Fewer Conditions

Pressure 30.02 in
Visibility 10.0 miles
Clouds
Dew Point Not available.
Humidity Not available.
Rainfall 0.04 in
Snow Depth Not available.
UV Not available.
Pollen 1.60 out of 12
Air Quality Not available.
Flu Activity Not available.
METAR KCVC 040535Z AUTO 28005KT 10SM -RA 23/18 A3002 RMK AO2 LTG DSNT NE THRU SE

More Conditions Fewer Conditions

10-Day Weather Forecast

×

Almanac

Astronomy

Jul. 04, 2015 Rise Set
Actual Time
Civil Twilight
Nautical Twilight
Astronomical Twilight
Moon
Length of Visible Light
Length of Day
Tomorrow will be .
, % of the Moon is Illuminated

Today's Extremes

State Highs State Lows

Community

WunderPhotos

Upload Photos

1,834,923 photos uploaded!

WunderBlogs® & News

Nearby

Air Quality

  Air Quality AQ Index Pollutant
Not available.

Snow Depth

Station Depth Elevation

Earthquake Activity

City Distance Mag. Time & Date
Minimum magnitude displayed is 2.5.

Coastal Water Temperatures

Place Temperature

Stations

Nearby Weather Stations

Station Location Temp. Windchill Dew Point Humidity Wind Precip. Elev Updated Type